createdAt,value
2023-05-04T00:01:22.715Z,16.38
2023-05-04T00:03:49.878Z,17.27
2023-05-04T00:06:17.143Z,16.60
2023-05-04T00:08:44.094Z,16.65
2023-05-04T00:11:11.449Z,17.30
2023-05-04T00:13:38.314Z,16.50
2023-05-04T00:16:05.514Z,17.90
2023-05-04T00:18:32.475Z,17.70
2023-05-04T00:20:59.608Z,17.02
2023-05-04T00:23:26.507Z,17.55
2023-05-04T00:25:53.580Z,15.90
2023-05-04T00:28:20.729Z,15.25
2023-05-04T00:30:47.940Z,14.48
2023-05-04T00:33:14.853Z,14.38
2023-05-04T00:35:41.892Z,14.80
2023-05-04T00:38:09.050Z,15.15
2023-05-04T00:40:36.004Z,14.68
2023-05-04T00:43:02.908Z,14.32
2023-05-04T00:45:30.624Z,14.57
2023-05-04T00:47:58.607Z,14.68
2023-05-04T00:50:26.307Z,16.17
2023-05-04T00:52:56.293Z,15.18
2023-05-04T00:55:23.407Z,16.65
2023-05-04T00:57:50.837Z,17.63
2023-05-04T01:00:18.175Z,18.23
2023-05-04T01:02:45.301Z,16.50
2023-05-04T01:05:12.663Z,17.55
2023-05-04T01:08:13.455Z,18.35
2023-05-04T01:10:50.975Z,17.35
2023-05-04T01:13:21.660Z,17.83
2023-05-04T01:15:49.843Z,19.52
2023-05-04T01:18:17.200Z,19.63
2023-05-04T01:20:44.217Z,19.42
2023-05-04T01:23:11.719Z,17.88
2023-05-04T01:25:47.343Z,19.73
2023-05-04T01:28:32.952Z,18.20
2023-05-04T01:31:05.705Z,16.95
2023-05-04T01:33:33.106Z,17.95
2023-05-04T01:36:00.151Z,19.27
2023-05-04T01:38:27.928Z,17.75
2023-05-04T01:40:54.781Z,18.85
2023-05-04T01:43:21.897Z,18.27
2023-05-04T01:45:48.831Z,18.52
2023-05-04T01:48:15.870Z,18.67
2023-05-04T01:50:42.784Z,19.52
2023-05-04T01:53:09.945Z,18.38
2023-05-04T01:55:36.915Z,19.13
2023-05-04T01:58:03.883Z,19.65
2023-05-04T02:00:30.817Z,18.42
2023-05-04T02:03:00.913Z,18.85
2023-05-04T02:05:28.635Z,18.08
2023-05-04T02:07:55.738Z,17.27
2023-05-04T02:10:22.705Z,18.27
2023-05-04T02:12:49.854Z,17.33
2023-05-04T02:15:16.970Z,16.98
2023-05-04T02:17:44.269Z,16.77
2023-05-04T02:20:13.026Z,16.50
2023-05-04T02:22:42.541Z,17.25
2023-05-04T02:25:09.838Z,17.50
2023-05-04T02:27:37.287Z,16.70
2023-05-04T02:30:04.967Z,17.83
2023-05-04T02:32:32.654Z,16.40
2023-05-04T02:34:59.769Z,16.52
2023-05-04T02:37:27.548Z,15.43
2023-05-04T02:39:54.515Z,15.55
2023-05-04T02:42:22.929Z,15.52
2023-05-04T02:44:49.940Z,15.25
2023-05-04T02:47:17.329Z,14.00
2023-05-04T02:49:44.435Z,13.27
2023-05-04T02:52:11.619Z,14.15
2023-05-04T02:54:38.911Z,14.02
2023-05-04T02:57:07.114Z,13.65
2023-05-04T02:59:34.361Z,12.53
2023-05-04T03:02:01.437Z,12.40
2023-05-04T03:04:28.406Z,13.13
2023-05-04T03:06:55.266Z,12.55
2023-05-04T03:09:22.310Z,11.80
2023-05-04T03:11:49.324Z,11.30
2023-05-04T03:14:16.439Z,11.75
2023-05-04T03:16:45.222Z,11.38
2023-05-04T03:19:12.161Z,11.70
2023-05-04T03:21:39.074Z,11.02
2023-05-04T03:24:06.627Z,10.93
2023-05-04T03:26:36.050Z,10.70
2023-05-04T03:29:03.277Z,10.38
2023-05-04T03:31:30.294Z,9.82
2023-05-04T03:33:57.310Z,10.02
2023-05-04T03:36:24.484Z,9.98
2023-05-04T03:38:51.818Z,9.70
2023-05-04T03:41:19.662Z,10.45
2023-05-04T03:43:46.645Z,11.20
2023-05-04T03:46:13.633Z,10.65
2023-05-04T03:48:40.900Z,11.57
2023-05-04T03:51:12.055Z,12.20
2023-05-04T03:53:39.179Z,11.52
2023-05-04T03:56:08.529Z,11.65
2023-05-04T03:58:35.326Z,12.68
2023-05-04T04:01:05.006Z,12.68
2023-05-04T04:03:32.048Z,12.98
2023-05-04T04:05:59.398Z,11.80
2023-05-04T04:08:26.836Z,12.48
2023-05-04T04:10:53.818Z,12.02
2023-05-04T04:13:20.922Z,11.05
2023-05-04T04:15:48.032Z,12.10
2023-05-04T04:18:14.942Z,12.35
2023-05-04T04:20:42.097Z,11.70
2023-05-04T04:23:09.070Z,11.20
2023-05-04T04:25:36.789Z,12.85
2023-05-04T04:28:04.107Z,12.50
2023-05-04T04:30:31.142Z,11.65
2023-05-04T04:32:58.048Z,12.43
2023-05-04T04:35:24.955Z,12.57
2023-05-04T04:37:51.860Z,12.23
2023-05-04T04:40:18.906Z,12.55
2023-05-04T04:42:47.506Z,12.00
2023-05-04T04:45:15.665Z,12.10
2023-05-04T04:47:42.856Z,12.20
2023-05-04T04:50:10.264Z,12.48
2023-05-04T04:52:38.181Z,13.02
2023-05-04T04:55:06.047Z,13.15
2023-05-04T04:57:33.356Z,13.05
2023-05-04T05:00:07.868Z,12.10
2023-05-04T05:02:34.974Z,11.25
2023-05-04T05:05:02.042Z,11.02
2023-05-04T05:07:30.276Z,12.43
2023-05-04T05:09:57.320Z,12.73
2023-05-04T05:12:24.464Z,12.40
2023-05-04T05:14:51.624Z,13.13
2023-05-04T05:17:19.874Z,12.35
2023-05-04T05:19:46.924Z,12.88
2023-05-04T05:22:14.106Z,13.13
2023-05-04T05:24:41.102Z,12.73
2023-05-04T05:27:08.370Z,13.13
2023-05-04T05:29:35.560Z,12.48
2023-05-04T05:32:03.722Z,12.48
2023-05-04T05:34:30.578Z,12.57
2023-05-04T05:36:58.335Z,13.00
2023-05-04T05:39:25.470Z,11.90
2023-05-04T05:41:56.593Z,12.70
2023-05-04T05:44:23.941Z,13.30
2023-05-04T05:46:51.006Z,13.00
2023-05-04T05:49:17.976Z,11.60
2023-05-04T05:51:44.851Z,11.45
2023-05-04T05:54:11.870Z,21.58
2023-05-04T05:56:39.058Z,14.10
2023-05-04T05:59:06.313Z,11.30
2023-05-04T06:01:33.359Z,10.38
2023-05-04T06:04:00.738Z,10.13
2023-05-04T06:06:27.894Z,9.18
2023-05-04T06:08:54.826Z,9.23
2023-05-04T06:11:21.999Z,9.38
2023-05-04T06:13:48.963Z,8.73
2023-05-04T06:16:15.968Z,7.68
2023-05-04T06:18:43.085Z,7.85
2023-05-04T06:21:10.169Z,7.25
2023-05-04T06:23:37.225Z,7.45
2023-05-04T06:26:11.052Z,7.50
2023-05-04T06:28:38.082Z,7.25
2023-05-04T06:31:05.120Z,7.90
2023-05-04T06:33:32.116Z,7.15
2023-05-04T06:35:59.122Z,6.90
2023-05-04T06:38:26.154Z,6.65
2023-05-04T06:40:53.136Z,6.20
2023-05-04T06:43:20.113Z,6.13
2023-05-04T06:45:47.153Z,6.50
2023-05-04T06:48:14.152Z,6.97
2023-05-04T06:50:41.148Z,6.28
2023-05-04T06:53:10.240Z,6.68
2023-05-04T06:55:37.546Z,6.13
2023-05-04T06:58:05.218Z,6.30
2023-05-04T07:00:32.282Z,5.85
2023-05-04T07:02:59.239Z,7.03
2023-05-04T07:05:26.344Z,6.53
2023-05-04T07:07:53.538Z,6.10
2023-05-04T07:10:20.499Z,6.60
2023-05-04T07:12:47.952Z,6.93
2023-05-04T07:15:15.140Z,7.78
2023-05-04T07:17:42.162Z,7.20
2023-05-04T07:20:09.565Z,7.07
2023-05-04T07:22:36.690Z,6.85
2023-05-04T07:25:04.067Z,7.57
2023-05-04T07:27:31.600Z,7.07
2023-05-04T07:29:58.527Z,7.65
2023-05-04T07:32:25.614Z,7.07
2023-05-04T07:34:52.585Z,7.13
2023-05-04T07:37:20.030Z,7.50
2023-05-04T07:39:47.002Z,6.90
2023-05-04T07:42:14.035Z,7.60
2023-05-04T07:44:41.510Z,7.85
2023-05-04T07:47:08.679Z,7.70
2023-05-04T07:49:35.663Z,7.35
2023-05-04T07:52:04.229Z,6.55
2023-05-04T07:54:31.392Z,17.05
2023-05-04T07:56:58.288Z,8.05
2023-05-04T07:59:25.390Z,7.78
2023-05-04T08:01:52.763Z,7.43
2023-05-04T08:04:19.705Z,7.60
2023-05-04T08:06:46.918Z,8.63
2023-05-04T08:09:13.772Z,8.48
2023-05-04T08:11:40.827Z,7.35
2023-05-04T08:14:08.230Z,7.65
2023-05-04T08:16:35.205Z,8.40
2023-05-04T08:19:02.784Z,8.18
2023-05-04T08:21:29.635Z,8.23
2023-05-04T08:23:56.616Z,8.60
2023-05-04T08:26:24.164Z,8.50
2023-05-04T08:28:51.134Z,7.90
2023-05-04T08:31:18.834Z,8.32
2023-05-04T08:33:48.712Z,7.90
2023-05-04T08:36:15.641Z,8.68
2023-05-04T08:38:42.786Z,8.63
2023-05-04T08:41:11.036Z,8.00
2023-05-04T08:43:38.674Z,8.20
2023-05-04T08:46:06.694Z,7.70
2023-05-04T08:48:34.883Z,8.60
2023-05-04T08:51:03.582Z,8.30
2023-05-04T08:53:31.652Z,8.33
2023-05-04T08:56:04.203Z,8.63
2023-05-04T08:58:32.580Z,8.52
2023-05-04T09:01:01.494Z,7.80
2023-05-04T09:03:30.380Z,7.57
2023-05-04T09:05:58.891Z,7.20
2023-05-04T09:08:26.812Z,7.53
2023-05-04T09:10:53.998Z,8.48
2023-05-04T09:13:20.966Z,7.43
2023-05-04T09:15:58.205Z,7.35
2023-05-04T09:18:40.237Z,7.65
2023-05-04T09:21:08.179Z,6.95
2023-05-04T09:23:49.261Z,7.60
2023-05-04T09:26:27.236Z,6.47
2023-05-04T09:28:54.289Z,7.70
2023-05-04T09:31:21.221Z,7.07
2023-05-04T09:33:48.190Z,7.53
2023-05-04T09:36:17.406Z,8.73
2023-05-04T09:38:44.565Z,8.20
2023-05-04T09:41:11.825Z,8.30
2023-05-04T09:43:43.827Z,8.68
2023-05-04T09:46:18.345Z,8.95
2023-05-04T09:48:56.721Z,9.93
2023-05-04T09:51:25.581Z,10.15
2023-05-04T09:53:53.985Z,10.00
2023-05-04T09:56:29.819Z,10.65
2023-05-04T09:59:00.098Z,9.55
2023-05-04T10:01:31.859Z,11.18
2023-05-04T10:03:59.183Z,11.00
2023-05-04T10:06:29.542Z,10.40
2023-05-04T10:08:58.664Z,10.60
2023-05-04T10:11:26.275Z,11.50
2023-05-04T10:13:56.896Z,11.80
2023-05-04T10:16:49.072Z,10.82
2023-05-04T10:19:47.108Z,11.90
2023-05-04T10:22:36.853Z,9.82
2023-05-04T10:25:46.952Z,10.95
2023-05-04T10:28:41.679Z,12.00
2023-05-04T10:31:09.264Z,10.70
2023-05-04T10:33:40.191Z,10.75
2023-05-04T10:36:08.567Z,11.68
2023-05-04T10:38:36.418Z,10.20
2023-05-04T10:41:21.528Z,8.60
2023-05-04T10:43:53.561Z,9.68
2023-05-04T10:46:21.991Z,9.40
2023-05-04T10:48:50.428Z,10.32
2023-05-04T10:51:22.588Z,9.98
2023-05-04T10:53:50.374Z,19.50
2023-05-04T10:56:25.594Z,11.45
2023-05-04T10:58:53.560Z,11.32
2023-05-04T11:01:21.900Z,10.38
2023-05-04T11:03:49.771Z,10.82
2023-05-04T11:06:18.018Z,11.38
2023-05-04T11:08:47.765Z,10.73
2023-05-04T11:11:15.439Z,11.93
2023-05-04T11:13:47.226Z,11.13
2023-05-04T11:16:14.699Z,12.05
2023-05-04T11:18:41.697Z,10.75
2023-05-04T11:21:09.727Z,11.43
2023-05-04T11:23:38.355Z,12.77
2023-05-04T11:26:12.048Z,14.10
2023-05-04T11:28:39.636Z,11.98
2023-05-04T11:31:17.225Z,12.90
2023-05-04T11:33:51.359Z,13.13
2023-05-04T11:36:19.585Z,14.13
2023-05-04T11:38:47.502Z,12.82
2023-05-04T11:41:14.795Z,12.98
2023-05-04T11:43:45.144Z,12.63
2023-05-04T11:46:13.184Z,13.60
2023-05-04T11:48:40.902Z,13.50
2023-05-04T11:51:08.166Z,13.10
2023-05-04T11:53:39.991Z,12.30
2023-05-04T11:56:10.779Z,11.80
2023-05-04T11:58:38.064Z,11.73
2023-05-04T12:01:05.245Z,11.63
2023-05-04T12:03:43.970Z,12.85
2023-05-04T12:06:30.566Z,12.43
2023-05-04T12:09:02.820Z,12.85
2023-05-04T12:11:29.819Z,13.07
2023-05-04T12:14:07.220Z,12.45
2023-05-04T12:16:34.341Z,12.25
2023-05-04T12:19:06.757Z,12.00
2023-05-04T12:21:35.172Z,12.15
2023-05-04T12:24:03.404Z,11.45
2023-05-04T12:26:30.576Z,12.18
2023-05-04T12:28:57.572Z,12.13
2023-05-04T12:31:25.519Z,11.63
2023-05-04T12:33:53.080Z,13.00
2023-05-04T12:36:20.152Z,11.23
2023-05-04T12:38:47.188Z,12.02
2023-05-04T12:41:14.337Z,11.60
2023-05-04T12:43:41.349Z,12.35
2023-05-04T12:46:08.383Z,12.68
2023-05-04T12:48:35.510Z,12.88
2023-05-04T12:51:05.029Z,12.07
2023-05-04T12:53:32.393Z,12.00
2023-05-04T12:56:02.012Z,11.90
2023-05-04T13:00:56.656Z,11.60
2023-05-04T13:03:24.256Z,12.18
2023-05-04T13:05:51.494Z,10.63
2023-05-04T13:08:19.794Z,7.40
2023-05-04T13:10:47.246Z,7.15
2023-05-04T13:13:17.232Z,6.40
2023-05-04T13:15:45.052Z,6.88
2023-05-04T13:18:12.874Z,6.68
2023-05-04T13:20:40.828Z,7.13
2023-05-04T13:23:08.254Z,7.22
2023-05-04T13:25:35.329Z,6.85
2023-05-04T13:28:02.188Z,6.90
2023-05-04T13:30:29.698Z,6.38
2023-05-04T13:32:56.699Z,6.90
2023-05-04T13:35:23.988Z,5.93
2023-05-04T13:37:51.583Z,6.32
2023-05-04T13:40:18.677Z,5.65
2023-05-04T13:42:46.885Z,6.28
2023-05-04T13:45:14.617Z,5.82
2023-05-04T13:47:41.546Z,5.80
2023-05-04T13:50:08.890Z,5.78
2023-05-04T13:52:36.966Z,6.13
2023-05-04T13:55:04.805Z,5.70
2023-05-04T13:57:33.070Z,5.90
2023-05-04T14:00:06.567Z,6.10
2023-05-04T14:02:41.172Z,6.10
2023-05-04T14:05:09.024Z,6.18
2023-05-04T14:07:36.104Z,5.78
2023-05-04T14:10:03.870Z,5.65
2023-05-04T14:12:33.498Z,5.82
2023-05-04T14:15:01.414Z,5.97
2023-05-04T14:17:31.733Z,6.38
2023-05-04T14:19:59.028Z,6.00
2023-05-04T14:22:25.989Z,6.00
2023-05-04T14:24:53.078Z,4.88
2023-05-04T14:27:21.130Z,5.22
2023-05-04T14:29:48.236Z,5.63
2023-05-04T14:32:15.655Z,6.15
2023-05-04T14:34:42.771Z,4.45
2023-05-04T14:37:09.709Z,5.47
2023-05-04T14:39:36.726Z,4.63
2023-05-04T14:42:03.910Z,7.05
2023-05-04T14:44:31.120Z,9.30
2023-05-04T14:46:58.061Z,7.85
2023-05-04T14:49:36.414Z,4.57
2023-05-04T14:52:04.201Z,3.70
2023-05-04T14:54:31.021Z,3.30
2023-05-04T14:56:58.995Z,3.30
2023-05-04T14:59:26.187Z,3.10
2023-05-04T15:01:54.885Z,3.47
2023-05-04T15:04:22.418Z,2.42
2023-05-04T15:06:49.694Z,2.80
2023-05-04T15:09:16.704Z,3.40
2023-05-04T15:11:43.899Z,2.90
2023-05-04T15:14:11.227Z,3.00
2023-05-04T15:16:38.484Z,2.88
2023-05-04T15:19:05.735Z,3.25
2023-05-04T15:21:32.812Z,2.92
2023-05-04T15:23:59.692Z,2.85
2023-05-04T15:26:27.106Z,2.55
2023-05-04T15:28:54.341Z,2.60
2023-05-04T15:31:21.804Z,3.03
2023-05-04T15:33:49.050Z,2.72
2023-05-04T15:36:16.096Z,2.38
2023-05-04T15:38:43.799Z,2.55
2023-05-04T15:41:11.189Z,3.03
2023-05-04T15:43:38.045Z,2.50
2023-05-04T15:46:05.208Z,2.17
2023-05-04T15:48:32.115Z,2.50
2023-05-04T15:50:59.091Z,2.20
2023-05-04T15:53:26.954Z,3.65
2023-05-04T15:55:53.929Z,2.50
2023-05-04T15:58:21.139Z,2.60
2023-05-04T16:00:48.218Z,2.55
2023-05-04T16:03:15.728Z,3.42
2023-05-04T16:05:43.860Z,3.20
2023-05-04T16:08:11.525Z,2.67
2023-05-04T16:10:38.675Z,2.97
2023-05-04T16:13:05.955Z,3.25
2023-05-04T16:15:34.485Z,4.68
2023-05-04T16:18:01.471Z,4.30
2023-05-04T16:20:29.085Z,3.55
2023-05-04T16:22:56.118Z,2.60
2023-05-04T16:25:23.115Z,2.17
2023-05-04T16:27:50.305Z,2.15
2023-05-04T16:30:17.336Z,2.20
2023-05-04T16:32:44.800Z,2.70
2023-05-04T16:35:12.080Z,3.20
2023-05-04T16:37:39.597Z,2.47
2023-05-04T16:40:17.116Z,2.25
2023-05-04T16:42:44.724Z,2.60
2023-05-04T16:45:14.558Z,2.45
2023-05-04T16:47:44.730Z,2.60
2023-05-04T16:50:12.719Z,2.70
2023-05-04T16:52:40.137Z,2.38
2023-05-04T16:55:10.756Z,2.95
2023-05-04T16:57:38.947Z,4.07
2023-05-04T17:00:06.949Z,3.58
2023-05-04T17:02:35.168Z,2.55
2023-05-04T17:05:04.688Z,3.20
2023-05-04T17:09:58.305Z,3.50
2023-05-04T17:12:25.384Z,3.80
2023-05-04T17:14:52.530Z,3.22
2023-05-04T17:17:19.635Z,3.20
2023-05-04T17:19:46.627Z,3.60
2023-05-04T17:22:13.572Z,2.92
2023-05-04T17:24:40.482Z,3.22
2023-05-04T17:27:07.633Z,2.20
2023-05-04T17:29:34.468Z,2.20
2023-05-04T17:32:02.183Z,2.25
2023-05-04T17:34:29.118Z,2.17
2023-05-04T17:36:56.082Z,2.70
2023-05-04T17:39:22.999Z,2.63
2023-05-04T17:41:50.159Z,2.20
2023-05-04T17:44:17.243Z,2.67
2023-05-04T17:46:44.373Z,2.92
2023-05-04T17:49:11.313Z,3.13
2023-05-04T17:51:39.504Z,2.63
2023-05-04T17:54:06.464Z,3.13
2023-05-04T17:56:33.378Z,3.50
2023-05-04T17:59:00.449Z,3.55
2023-05-04T18:01:27.528Z,3.35
2023-05-04T18:03:54.560Z,3.33
2023-05-04T18:06:21.458Z,3.58
2023-05-04T18:08:48.442Z,4.03
2023-05-04T18:11:15.570Z,3.83
2023-05-04T18:13:42.591Z,3.58
2023-05-04T18:16:09.782Z,3.45
2023-05-04T18:18:36.748Z,3.75
2023-05-04T18:21:03.933Z,4.32
2023-05-04T18:23:30.982Z,4.20
2023-05-04T18:25:57.886Z,4.30
2023-05-04T18:28:24.861Z,4.60
2023-05-04T18:30:51.860Z,4.63
2023-05-04T18:33:18.834Z,4.68
2023-05-04T18:35:45.764Z,5.63
2023-05-04T18:38:12.718Z,5.35
2023-05-04T18:40:39.673Z,6.20
2023-05-04T18:43:06.718Z,5.53
2023-05-04T18:45:33.717Z,5.97
2023-05-04T18:48:00.779Z,5.97
2023-05-04T18:50:27.805Z,5.88
2023-05-04T18:52:54.869Z,5.85
2023-05-04T18:55:21.944Z,6.60
2023-05-04T18:57:50.563Z,6.35
2023-05-04T19:00:17.632Z,6.60
2023-05-04T19:02:44.611Z,6.15
2023-05-04T19:05:14.318Z,7.13
2023-05-04T19:07:41.740Z,7.60
2023-05-04T19:10:09.473Z,7.20
2023-05-04T19:12:36.787Z,7.93
2023-05-04T19:15:04.713Z,7.47
2023-05-04T19:17:33.581Z,7.97
2023-05-04T19:20:00.531Z,12.73
2023-05-04T19:22:27.518Z,8.25
2023-05-04T19:24:55.530Z,7.72
2023-05-04T19:27:22.548Z,8.15
2023-05-04T19:29:49.747Z,8.25
2023-05-04T19:32:24.414Z,8.10
2023-05-04T19:34:52.726Z,8.10
2023-05-04T19:37:19.821Z,8.85
2023-05-04T19:39:46.739Z,7.85
2023-05-04T19:42:13.716Z,9.70
2023-05-04T19:44:41.030Z,8.90
2023-05-04T19:47:09.166Z,8.20
2023-05-04T19:49:36.198Z,8.63
2023-05-04T19:52:03.360Z,9.02
2023-05-04T19:54:30.329Z,8.70
2023-05-04T19:56:57.298Z,8.60
2023-05-04T19:59:24.262Z,8.55
2023-05-04T20:01:51.213Z,8.57
2023-05-04T20:04:18.870Z,7.78
2023-05-04T20:06:46.388Z,7.55
2023-05-04T20:09:13.625Z,7.38
2023-05-04T20:11:40.703Z,7.63
2023-05-04T20:14:07.950Z,8.52
2023-05-04T20:16:35.207Z,7.88
2023-05-04T20:19:04.078Z,8.40
2023-05-04T20:21:31.212Z,8.25
2023-05-04T20:23:58.197Z,7.82
2023-05-04T20:26:25.219Z,8.63
2023-05-04T20:28:52.146Z,7.78
2023-05-04T20:31:19.252Z,7.78
2023-05-04T20:33:46.417Z,7.30
2023-05-04T20:36:13.244Z,7.53
2023-05-04T20:38:40.348Z,7.72
2023-05-04T20:41:10.388Z,6.90
2023-05-04T20:43:37.471Z,6.68
2023-05-04T20:46:22.971Z,7.60
2023-05-04T20:48:50.035Z,7.88
2023-05-04T20:51:17.157Z,7.25
2023-05-04T20:53:44.379Z,6.90
2023-05-04T20:56:11.459Z,6.68
2023-05-04T20:58:38.473Z,6.80
2023-05-04T21:01:06.043Z,7.63
2023-05-04T21:03:33.621Z,7.20
2023-05-04T21:06:01.633Z,7.65
2023-05-04T21:08:28.691Z,7.20
2023-05-04T21:10:55.552Z,7.65
2023-05-04T21:13:22.711Z,7.00
2023-05-04T21:15:49.701Z,6.00
2023-05-04T21:18:18.408Z,7.45
2023-05-04T21:20:45.665Z,6.60
2023-05-04T21:23:12.836Z,7.28
2023-05-04T21:25:39.758Z,7.03
2023-05-04T21:28:06.684Z,7.93
2023-05-04T21:30:33.668Z,8.35
2023-05-04T21:33:01.118Z,7.93
2023-05-04T21:35:46.969Z,8.07
2023-05-04T21:38:14.636Z,12.82
2023-05-04T21:40:41.526Z,9.32
2023-05-04T21:43:08.861Z,9.10
2023-05-04T21:45:36.011Z,8.57
2023-05-04T21:48:03.758Z,8.02
2023-05-04T21:50:30.977Z,7.93
2023-05-04T21:52:57.981Z,8.25
2023-05-04T21:55:25.003Z,8.23
2023-05-04T21:57:52.008Z,7.53
2023-05-04T22:00:19.174Z,7.93
2023-05-04T22:02:46.326Z,7.07
2023-05-04T22:05:13.192Z,7.70
2023-05-04T22:07:40.346Z,8.00
2023-05-04T22:10:08.212Z,7.38
2023-05-04T22:12:35.387Z,7.85
2023-05-04T22:15:02.365Z,7.72
2023-05-04T22:17:31.822Z,6.90
2023-05-04T22:19:58.734Z,6.80
2023-05-04T22:22:26.006Z,7.13
2023-05-04T22:24:52.938Z,7.97
2023-05-04T22:27:21.335Z,6.40
2023-05-04T22:29:48.441Z,6.82
2023-05-04T22:32:15.805Z,7.13
2023-05-04T22:34:42.602Z,7.25
2023-05-04T22:37:09.511Z,6.47
2023-05-04T22:39:36.325Z,6.50
2023-05-04T22:42:03.574Z,6.95
2023-05-04T22:44:30.434Z,6.82
2023-05-04T22:46:57.259Z,7.38
2023-05-04T22:49:24.084Z,6.90
2023-05-04T22:51:51.016Z,7.15
2023-05-04T22:54:17.829Z,6.72
2023-05-04T22:56:44.646Z,7.22
2023-05-04T22:59:11.434Z,7.05
2023-05-04T23:01:43.128Z,6.63
2023-05-04T23:04:11.503Z,7.10
2023-05-04T23:06:38.711Z,7.07
2023-05-04T23:09:05.752Z,6.72
2023-05-04T23:11:32.605Z,7.32
2023-05-04T23:13:59.476Z,6.78
2023-05-04T23:16:26.451Z,7.50
2023-05-04T23:18:53.496Z,7.55
2023-05-04T23:21:20.331Z,7.70
2023-05-04T23:23:47.434Z,7.15
2023-05-04T23:26:14.298Z,6.60
2023-05-04T23:28:41.141Z,7.28
2023-05-04T23:31:08.032Z,8.07
2023-05-04T23:33:35.025Z,7.03
2023-05-04T23:36:01.824Z,7.50
2023-05-04T23:38:28.997Z,7.30
2023-05-04T23:40:55.766Z,7.35
2023-05-04T23:43:25.665Z,6.78
2023-05-04T23:46:00.483Z,7.40
2023-05-04T23:48:31.867Z,6.97
2023-05-04T23:51:03.823Z,7.18
2023-05-04T23:53:36.785Z,7.93
2023-05-04T23:56:05.109Z,8.10
2023-05-04T23:58:33.377Z,8.45
